createdAt,value
2018-11-25T00:02:50.096Z,4.85
2018-11-25T00:12:50.142Z,4.84
2018-11-25T00:22:50.115Z,4.81
2018-11-25T00:32:50.116Z,4.74
2018-11-25T00:42:50.140Z,4.68
2018-11-25T00:52:50.127Z,4.70
2018-11-25T01:02:50.304Z,4.58
2018-11-25T01:12:50.081Z,4.55
2018-11-25T01:22:50.239Z,4.56
2018-11-25T01:32:50.150Z,4.48
2018-11-25T01:42:50.116Z,4.45
2018-11-25T01:52:50.111Z,4.48
2018-11-25T02:02:50.104Z,4.46
2018-11-25T02:12:50.071Z,4.48
2018-11-25T02:22:50.345Z,4.42
2018-11-25T02:32:50.146Z,4.38
2018-11-25T02:42:50.174Z,4.36
2018-11-25T02:52:50.125Z,4.29
2018-11-25T03:02:50.105Z,4.18
2018-11-25T03:12:50.773Z,4.14
2018-11-25T03:22:50.121Z,4.13
2018-11-25T03:32:50.116Z,4.19
2018-11-25T03:42:50.137Z,4.19
2018-11-25T03:52:50.062Z,4.23
2018-11-25T04:02:50.115Z,4.27
2018-11-25T04:12:50.153Z,4.29
2018-11-25T04:22:50.104Z,4.29
2018-11-25T04:32:50.062Z,4.28
2018-11-25T04:42:50.109Z,4.26
2018-11-25T04:52:50.172Z,4.33
2018-11-25T05:02:50.042Z,4.35
2018-11-25T05:12:50.055Z,4.36
2018-11-25T05:22:50.090Z,4.19
2018-11-25T05:32:50.073Z,4.11
2018-11-25T05:42:50.037Z,4.03
2018-11-25T05:52:50.270Z,3.97
2018-11-25T06:02:50.123Z,3.89
2018-11-25T06:12:50.235Z,3.84
2018-11-25T06:22:50.138Z,3.79
2018-11-25T06:32:50.660Z,3.77
2018-11-25T06:42:50.084Z,3.78
2018-11-25T06:52:50.118Z,3.90
2018-11-25T07:02:50.114Z,3.84
2018-11-25T07:12:50.506Z,3.86
2018-11-25T07:22:50.104Z,3.87
2018-11-25T07:32:50.109Z,3.89
2018-11-25T07:42:50.109Z,3.93
2018-11-25T07:52:49.993Z,4.01
2018-11-25T08:02:50.119Z,3.97
2018-11-25T08:12:50.117Z,3.92
2018-11-25T08:22:50.077Z,3.84
2018-11-25T08:32:50.002Z,3.77
2018-11-25T08:42:50.133Z,3.71
2018-11-25T08:52:50.097Z,3.75
2018-11-25T09:02:50.127Z,3.76
2018-11-25T09:12:55.314Z,3.60
2018-11-25T09:22:50.038Z,3.69
2018-11-25T09:32:50.104Z,3.65
2018-11-25T09:42:50.049Z,3.67
2018-11-25T09:52:50.104Z,3.72
2018-11-25T10:02:50.096Z,3.73
2018-11-25T10:12:50.099Z,3.77
2018-11-25T10:22:50.062Z,3.61
2018-11-25T10:32:50.070Z,3.61
2018-11-25T10:42:49.905Z,3.60
2018-11-25T10:52:50.045Z,3.70
2018-11-25T11:02:50.000Z,3.82
2018-11-25T11:12:49.991Z,3.70
2018-11-25T11:22:50.055Z,3.81
2018-11-25T11:32:49.938Z,3.84
2018-11-25T11:42:50.052Z,3.80
2018-11-25T11:52:50.091Z,3.72
2018-11-25T12:02:49.959Z,3.72
2018-11-25T12:12:50.060Z,3.59
2018-11-25T12:22:50.043Z,3.60
2018-11-25T12:32:50.040Z,3.66
2018-11-25T12:42:50.154Z,3.63
2018-11-25T12:52:51.003Z,3.61
2018-11-25T13:02:49.991Z,3.53
2018-11-25T13:12:52.385Z,3.54
2018-11-25T13:22:49.966Z,3.40
2018-11-25T13:32:50.014Z,3.40
2018-11-25T13:42:50.056Z,3.35
2018-11-25T13:52:49.971Z,3.33
2018-11-25T14:02:50.019Z,3.33
2018-11-25T14:12:50.053Z,3.35
2018-11-25T14:22:50.007Z,3.34
2018-11-25T14:32:49.971Z,3.36
2018-11-25T14:42:50.013Z,3.28
2018-11-25T14:52:50.076Z,3.23
2018-11-25T15:02:50.016Z,3.23
2018-11-25T15:12:50.103Z,3.28
2018-11-25T15:22:49.955Z,3.31
2018-11-25T15:32:49.940Z,3.31
2018-11-25T15:42:49.997Z,3.35
2018-11-25T15:52:49.992Z,3.39
2018-11-25T16:02:51.033Z,3.41
2018-11-25T16:12:50.020Z,3.41
2018-11-25T16:22:49.956Z,3.46
2018-11-25T16:32:49.976Z,3.44
2018-11-25T16:42:49.942Z,3.49
2018-11-25T16:52:49.998Z,3.52
2018-11-25T17:02:50.163Z,3.53
2018-11-25T17:12:50.023Z,3.53
2018-11-25T17:22:50.162Z,3.63
2018-11-25T17:32:49.993Z,3.68
2018-11-25T17:42:50.018Z,3.61
2018-11-25T17:52:49.994Z,3.59
2018-11-25T18:02:49.987Z,3.57
2018-11-25T18:12:50.030Z,3.61
2018-11-25T18:22:49.907Z,3.66
2018-11-25T18:32:50.697Z,3.61
2018-11-25T18:42:49.990Z,3.55
2018-11-25T18:52:50.005Z,3.59
2018-11-25T19:02:50.001Z,3.57
2018-11-25T19:12:49.916Z,3.52
2018-11-25T19:22:49.957Z,3.49
2018-11-25T19:32:49.988Z,3.53
2018-11-25T19:42:49.986Z,3.55
2018-11-25T19:52:49.991Z,3.51
2018-11-25T20:02:49.903Z,3.51
2018-11-25T20:12:51.233Z,3.45
2018-11-25T20:22:49.855Z,3.35
2018-11-25T20:32:49.944Z,3.34
2018-11-25T20:42:49.950Z,3.33
2018-11-25T20:52:49.993Z,3.34
2018-11-25T21:02:49.946Z,3.36
2018-11-25T21:12:50.591Z,3.37
2018-11-25T21:22:49.919Z,3.38
2018-11-25T21:32:50.080Z,3.40
2018-11-25T21:42:49.953Z,3.43
2018-11-25T21:52:49.961Z,3.45
2018-11-25T22:02:49.952Z,3.53
2018-11-25T22:12:49.880Z,3.54
2018-11-25T22:22:49.870Z,3.55
2018-11-25T22:32:49.903Z,3.52
2018-11-25T22:42:49.919Z,3.49
2018-11-25T22:52:49.918Z,3.49
2018-11-25T23:02:49.876Z,3.54
2018-11-25T23:12:49.912Z,3.59
2018-11-25T23:22:49.990Z,3.62
2018-11-25T23:32:50.209Z,3.64
2018-11-25T23:42:50.192Z,3.59
2018-11-25T23:52:49.923Z,3.60
